sensor_id;sensor_type;location;lat;lon;timestamp;P1;durP1;ratioP1;P2;durP2;ratioP2
28531;SDS011;15738;44.860;10.066;2022-11-22T00:00:55;103.93;;;48.97;;
28531;SDS011;15738;44.860;10.066;2022-11-22T00:03:41;105.65;;;49.50;;
28531;SDS011;15738;44.860;10.066;2022-11-22T00:06:27;96.43;;;46.65;;
28531;SDS011;15738;44.860;10.066;2022-11-22T00:09:12;102.50;;;48.75;;
28531;SDS011;15738;44.860;10.066;2022-11-22T00:11:58;100.38;;;47.72;;
28531;SDS011;15738;44.860;10.066;2022-11-22T00:14:44;93.75;;;45.88;;
28531;SDS011;15738;44.860;10.066;2022-11-22T00:17:30;98.50;;;46.25;;
28531;SDS011;15738;44.860;10.066;2022-11-22T00:20:16;89.88;;;44.95;;
28531;SDS011;15738;44.860;10.066;2022-11-22T00:23:02;94.72;;;45.08;;
28531;SDS011;15738;44.860;10.066;2022-11-22T00:25:48;86.78;;;42.85;;
28531;SDS011;15738;44.860;10.066;2022-11-22T00:28:33;89.25;;;43.20;;
28531;SDS011;15738;44.860;10.066;2022-11-22T00:31:19;90.05;;;43.45;;
28531;SDS011;15738;44.860;10.066;2022-11-22T00:34:05;79.78;;;40.60;;
28531;SDS011;15738;44.860;10.066;2022-11-22T00:36:51;85.93;;;41.63;;
28531;SDS011;15738;44.860;10.066;2022-11-22T00:39:36;79.43;;;39.53;;
28531;SDS011;15738;44.860;10.066;2022-11-22T00:42:22;76.88;;;38.13;;
28531;SDS011;15738;44.860;10.066;2022-11-22T00:45:08;76.72;;;40.00;;
28531;SDS011;15738;44.860;10.066;2022-11-22T00:47:54;79.43;;;38.17;;
28531;SDS011;15738;44.860;10.066;2022-11-22T00:50:39;87.40;;;39.67;;
28531;SDS011;15738;44.860;10.066;2022-11-22T00:53:25;76.78;;;39.00;;
28531;SDS011;15738;44.860;10.066;2022-11-22T00:56:11;76.82;;;37.90;;
28531;SDS011;15738;44.860;10.066;2022-11-22T00:58:56;74.03;;;37.72;;
28531;SDS011;15738;44.860;10.066;2022-11-22T01:01:43;71.13;;;36.67;;
28531;SDS011;15738;44.860;10.066;2022-11-22T01:04:28;75.53;;;38.80;;
28531;SDS011;15738;44.860;10.066;2022-11-22T01:07:14;75.25;;;37.67;;
28531;SDS011;15738;44.860;10.066;2022-11-22T01:10:00;73.78;;;37.50;;
28531;SDS011;15738;44.860;10.066;2022-11-22T01:12:45;72.78;;;36.42;;
28531;SDS011;15738;44.860;10.066;2022-11-22T01:15:31;76.15;;;38.03;;
28531;SDS011;15738;44.860;10.066;2022-11-22T01:18:17;70.50;;;37.30;;
28531;SDS011;15738;44.860;10.066;2022-11-22T01:21:03;70.65;;;36.65;;
28531;SDS011;15738;44.860;10.066;2022-11-22T01:23:50;71.60;;;35.67;;
28531;SDS011;15738;44.860;10.066;2022-11-22T01:26:35;61.90;;;34.10;;
28531;SDS011;15738;44.860;10.066;2022-11-22T01:29:22;72.22;;;35.45;;
28531;SDS011;15738;44.860;10.066;2022-11-22T01:32:07;68.47;;;34.65;;
28531;SDS011;15738;44.860;10.066;2022-11-22T01:34:53;67.03;;;34.17;;
28531;SDS011;15738;44.860;10.066;2022-11-22T01:37:38;64.25;;;32.97;;
28531;SDS011;15738;44.860;10.066;2022-11-22T01:40:24;62.75;;;31.80;;
28531;SDS011;15738;44.860;10.066;2022-11-22T01:46:23;60.60;;;30.80;;
28531;SDS011;15738;44.860;10.066;2022-11-22T01:52:12;56.37;;;29.27;;
28531;SDS011;15738;44.860;10.066;2022-11-22T01:55:10;52.58;;;29.65;;
28531;SDS011;15738;44.860;10.066;2022-11-22T01:57:57;62.40;;;31.13;;
28531;SDS011;15738;44.860;10.066;2022-11-22T02:00:43;53.55;;;29.08;;
28531;SDS011;15738;44.860;10.066;2022-11-22T02:03:30;61.67;;;31.25;;
28531;SDS011;15738;44.860;10.066;2022-11-22T02:06:18;52.00;;;29.27;;
28531;SDS011;15738;44.860;10.066;2022-11-22T02:09:06;52.83;;;27.85;;
28531;SDS011;15738;44.860;10.066;2022-11-22T02:11:59;53.53;;;29.35;;
28531;SDS011;15738;44.860;10.066;2022-11-22T02:14:48;58.53;;;29.77;;
28531;SDS011;15738;44.860;10.066;2022-11-22T02:17:34;54.22;;;29.63;;
28531;SDS011;15738;44.860;10.066;2022-11-22T02:20:19;52.05;;;27.85;;
28531;SDS011;15738;44.860;10.066;2022-11-22T02:26:09;57.55;;;30.05;;
28531;SDS011;15738;44.860;10.066;2022-11-22T02:28:56;51.80;;;28.85;;
28531;SDS011;15738;44.860;10.066;2022-11-22T02:31:47;55.40;;;29.58;;
28531;SDS011;15738;44.860;10.066;2022-11-22T02:34:40;54.17;;;29.83;;
28531;SDS011;15738;44.860;10.066;2022-11-22T02:37:31;58.58;;;29.40;;
28531;SDS011;15738;44.860;10.066;2022-11-22T02:40:17;57.28;;;29.90;;
28531;SDS011;15738;44.860;10.066;2022-11-22T02:43:05;54.83;;;29.40;;
28531;SDS011;15738;44.860;10.066;2022-11-22T02:46:01;56.80;;;29.90;;
28531;SDS011;15738;44.860;10.066;2022-11-22T02:48:50;52.20;;;29.15;;
28531;SDS011;15738;44.860;10.066;2022-11-22T02:51:36;54.05;;;29.70;;
28531;SDS011;15738;44.860;10.066;2022-11-22T02:54:22;52.67;;;28.63;;
28531;SDS011;15738;44.860;10.066;2022-11-22T02:57:07;56.10;;;29.75;;
28531;SDS011;15738;44.860;10.066;2022-11-22T02:59:53;51.53;;;27.75;;
28531;SDS011;15738;44.860;10.066;2022-11-22T03:02:39;49.20;;;28.15;;
28531;SDS011;15738;44.860;10.066;2022-11-22T03:05:24;54.08;;;28.88;;
28531;SDS011;15738;44.860;10.066;2022-11-22T03:08:10;52.35;;;28.25;;
28531;SDS011;15738;44.860;10.066;2022-11-22T03:10:56;52.97;;;27.85;;
28531;SDS011;15738;44.860;10.066;2022-11-22T03:13:44;52.58;;;28.20;;
28531;SDS011;15738;44.860;10.066;2022-11-22T03:16:30;53.65;;;28.98;;
28531;SDS011;15738;44.860;10.066;2022-11-22T03:19:15;43.78;;;26.00;;
28531;SDS011;15738;44.860;10.066;2022-11-22T03:22:01;45.83;;;24.77;;
28531;SDS011;15738;44.860;10.066;2022-11-22T03:24:47;48.33;;;25.90;;
28531;SDS011;15738;44.860;10.066;2022-11-22T03:27:33;48.08;;;26.13;;
28531;SDS011;15738;44.860;10.066;2022-11-22T03:30:18;47.75;;;26.77;;
28531;SDS011;15738;44.860;10.066;2022-11-22T03:33:04;46.13;;;26.25;;
28531;SDS011;15738;44.860;10.066;2022-11-22T03:35:53;45.85;;;25.92;;
28531;SDS011;15738;44.860;10.066;2022-11-22T03:38:41;48.88;;;26.20;;
28531;SDS011;15738;44.860;10.066;2022-11-22T03:41:27;48.35;;;24.63;;
28531;SDS011;15738;44.860;10.066;2022-11-22T03:44:12;43.10;;;24.35;;
28531;SDS011;15738;44.860;10.066;2022-11-22T03:46:58;48.42;;;25.40;;
28531;SDS011;15738;44.860;10.066;2022-11-22T03:49:44;45.97;;;25.80;;
28531;SDS011;15738;44.860;10.066;2022-11-22T03:52:29;42.78;;;23.90;;
28531;SDS011;15738;44.860;10.066;2022-11-22T03:55:15;40.63;;;23.20;;
28531;SDS011;15738;44.860;10.066;2022-11-22T03:58:01;40.63;;;22.20;;
28531;SDS011;15738;44.860;10.066;2022-11-22T04:00:47;38.78;;;22.40;;
28531;SDS011;15738;44.860;10.066;2022-11-22T04:03:33;38.08;;;22.13;;
28531;SDS011;15738;44.860;10.066;2022-11-22T04:06:18;37.20;;;21.98;;
28531;SDS011;15738;44.860;10.066;2022-11-22T04:09:04;40.20;;;22.60;;
28531;SDS011;15738;44.860;10.066;2022-11-22T04:11:50;38.83;;;22.65;;
28531;SDS011;15738;44.860;10.066;2022-11-22T04:14:35;38.80;;;22.52;;
28531;SDS011;15738;44.860;10.066;2022-11-22T04:17:42;37.05;;;20.75;;
28531;SDS011;15738;44.860;10.066;2022-11-22T04:20:29;34.70;;;19.90;;
28531;SDS011;15738;44.860;10.066;2022-11-22T04:23:33;26.85;;;15.57;;
28531;SDS011;15738;44.860;10.066;2022-11-22T04:26:19;29.45;;;17.02;;
28531;SDS011;15738;44.860;10.066;2022-11-22T04:29:05;26.65;;;15.57;;
28531;SDS011;15738;44.860;10.066;2022-11-22T04:31:55;25.75;;;15.23;;
28531;SDS011;15738;44.860;10.066;2022-11-22T04:34:59;32.00;;;16.25;;
28531;SDS011;15738;44.860;10.066;2022-11-22T04:37:50;32.65;;;19.95;;
28531;SDS011;15738;44.860;10.066;2022-11-22T04:40:36;38.20;;;20.58;;
28531;SDS011;15738;44.860;10.066;2022-11-22T04:43:27;35.00;;;20.50;;
28531;SDS011;15738;44.860;10.066;2022-11-22T04:46:32;41.97;;;22.00;;
28531;SDS011;15738;44.860;10.066;2022-11-22T04:49:18;37.35;;;21.13;;
28531;SDS011;15738;44.860;10.066;2022-11-22T04:52:04;34.60;;;21.23;;
28531;SDS011;15738;44.860;10.066;2022-11-22T04:55:08;36.97;;;21.10;;
28531;SDS011;15738;44.860;10.066;2022-11-22T04:57:54;37.47;;;20.50;;
28531;SDS011;15738;44.860;10.066;2022-11-22T05:00:44;35.20;;;20.55;;
28531;SDS011;15738;44.860;10.066;2022-11-22T05:03:30;34.05;;;19.88;;
28531;SDS011;15738;44.860;10.066;2022-11-22T05:06:16;35.75;;;21.02;;
28531;SDS011;15738;44.860;10.066;2022-11-22T05:09:01;35.67;;;21.08;;
28531;SDS011;15738;44.860;10.066;2022-11-22T05:11:47;37.35;;;20.77;;
28531;SDS011;15738;44.860;10.066;2022-11-22T05:14:34;33.05;;;19.67;;
28531;SDS011;15738;44.860;10.066;2022-11-22T05:17:19;31.90;;;19.42;;
28531;SDS011;15738;44.860;10.066;2022-11-22T05:20:05;34.15;;;19.45;;
28531;SDS011;15738;44.860;10.066;2022-11-22T05:22:53;33.72;;;19.02;;
28531;SDS011;15738;44.860;10.066;2022-11-22T05:25:57;34.83;;;18.42;;
28531;SDS011;15738;44.860;10.066;2022-11-22T05:28:43;31.88;;;18.38;;
28531;SDS011;15738;44.860;10.066;2022-11-22T05:31:29;29.80;;;17.38;;
28531;SDS011;15738;44.860;10.066;2022-11-22T05:34:17;34.72;;;18.20;;
28531;SDS011;15738;44.860;10.066;2022-11-22T05:37:02;30.20;;;18.25;;
28531;SDS011;15738;44.860;10.066;2022-11-22T05:39:48;27.58;;;17.50;;
28531;SDS011;15738;44.860;10.066;2022-11-22T05:42:34;28.50;;;16.88;;
28531;SDS011;15738;44.860;10.066;2022-11-22T05:45:19;28.63;;;16.52;;
28531;SDS011;15738;44.860;10.066;2022-11-22T05:48:05;29.63;;;17.73;;
28531;SDS011;15738;44.860;10.066;2022-11-22T05:50:51;29.00;;;17.05;;
28531;SDS011;15738;44.860;10.066;2022-11-22T05:53:37;25.45;;;15.13;;
28531;SDS011;15738;44.860;10.066;2022-11-22T05:56:23;23.70;;;15.18;;
28531;SDS011;15738;44.860;10.066;2022-11-22T05:59:09;25.70;;;14.90;;
28531;SDS011;15738;44.860;10.066;2022-11-22T06:01:54;24.73;;;14.90;;
28531;SDS011;15738;44.860;10.066;2022-11-22T06:04:40;24.13;;;14.50;;
28531;SDS011;15738;44.860;10.066;2022-11-22T06:07:25;21.90;;;13.45;;
28531;SDS011;15738;44.860;10.066;2022-11-22T06:10:11;23.83;;;12.73;;
28531;SDS011;15738;44.860;10.066;2022-11-22T06:12:57;20.95;;;12.40;;
28531;SDS011;15738;44.860;10.066;2022-11-22T06:15:42;23.25;;;13.18;;
28531;SDS011;15738;44.860;10.066;2022-11-22T06:18:28;21.35;;;12.48;;
28531;SDS011;15738;44.860;10.066;2022-11-22T06:21:15;20.98;;;12.82;;
28531;SDS011;15738;44.860;10.066;2022-11-22T06:24:02;21.27;;;12.50;;
28531;SDS011;15738;44.860;10.066;2022-11-22T06:26:48;18.67;;;12.13;;
28531;SDS011;15738;44.860;10.066;2022-11-22T06:29:34;16.90;;;11.07;;
28531;SDS011;15738;44.860;10.066;2022-11-22T06:32:19;16.33;;;10.90;;
28531;SDS011;15738;44.860;10.066;2022-11-22T06:35:05;20.65;;;11.65;;
28531;SDS011;15738;44.860;10.066;2022-11-22T06:37:51;16.23;;;10.85;;
28531;SDS011;15738;44.860;10.066;2022-11-22T06:43:30;16.92;;;11.13;;
28531;SDS011;15738;44.860;10.066;2022-11-22T06:46:17;19.17;;;10.20;;
28531;SDS011;15738;44.860;10.066;2022-11-22T06:49:05;17.50;;;10.02;;
28531;SDS011;15738;44.860;10.066;2022-11-22T06:51:52;17.98;;;9.07;;
28531;SDS011;15738;44.860;10.066;2022-11-22T06:54:37;12.73;;;9.38;;
28531;SDS011;15738;44.860;10.066;2022-11-22T06:57:23;11.65;;;8.38;;
28531;SDS011;15738;44.860;10.066;2022-11-22T07:00:09;15.13;;;9.02;;
28531;SDS011;15738;44.860;10.066;2022-11-22T07:02:55;14.07;;;10.07;;
28531;SDS011;15738;44.860;10.066;2022-11-22T07:05:48;14.50;;;8.98;;
28531;SDS011;15738;44.860;10.066;2022-11-22T07:08:37;16.70;;;9.50;;
28531;SDS011;15738;44.860;10.066;2022-11-22T07:11:25;18.08;;;10.10;;
28531;SDS011;15738;44.860;10.066;2022-11-22T07:14:12;14.00;;;9.77;;
28531;SDS011;15738;44.860;10.066;2022-11-22T07:16:57;23.30;;;11.35;;
28531;SDS011;15738;44.860;10.066;2022-11-22T07:19:43;14.85;;;11.05;;
28531;SDS011;15738;44.860;10.066;2022-11-22T07:22:29;19.05;;;11.55;;
28531;SDS011;15738;44.860;10.066;2022-11-22T07:25:14;17.58;;;11.48;;
28531;SDS011;15738;44.860;10.066;2022-11-22T07:28:00;18.42;;;11.07;;
28531;SDS011;15738;44.860;10.066;2022-11-22T07:30:45;16.40;;;11.10;;
28531;SDS011;15738;44.860;10.066;2022-11-22T07:33:31;16.90;;;11.50;;
28531;SDS011;15738;44.860;10.066;2022-11-22T07:36:18;15.57;;;11.07;;
28531;SDS011;15738;44.860;10.066;2022-11-22T07:39:05;17.05;;;11.60;;
28531;SDS011;15738;44.860;10.066;2022-11-22T07:41:51;15.20;;;9.88;;
28531;SDS011;15738;44.860;10.066;2022-11-22T07:44:37;14.43;;;9.32;;
28531;SDS011;15738;44.860;10.066;2022-11-22T07:47:23;9.05;;;6.50;;
28531;SDS011;15738;44.860;10.066;2022-11-22T07:50:08;11.95;;;7.80;;
28531;SDS011;15738;44.860;10.066;2022-11-22T07:52:58;11.63;;;8.38;;
28531;SDS011;15738;44.860;10.066;2022-11-22T07:55:44;14.38;;;8.88;;
28531;SDS011;15738;44.860;10.066;2022-11-22T07:58:30;12.55;;;7.95;;
28531;SDS011;15738;44.860;10.066;2022-11-22T08:01:17;10.75;;;8.30;;
28531;SDS011;15738;44.860;10.066;2022-11-22T08:04:03;12.50;;;7.53;;
28531;SDS011;15738;44.860;10.066;2022-11-22T08:06:49;10.57;;;6.72;;
28531;SDS011;15738;44.860;10.066;2022-11-22T08:09:35;9.95;;;5.80;;
28531;SDS011;15738;44.860;10.066;2022-11-22T08:12:20;6.68;;;4.80;;
28531;SDS011;15738;44.860;10.066;2022-11-22T08:15:06;6.95;;;4.35;;
28531;SDS011;15738;44.860;10.066;2022-11-22T08:17:53;6.57;;;4.00;;
28531;SDS011;15738;44.860;10.066;2022-11-22T08:20:38;8.30;;;4.05;;
28531;SDS011;15738;44.860;10.066;2022-11-22T08:23:24;5.75;;;3.75;;
28531;SDS011;15738;44.860;10.066;2022-11-22T08:26:10;6.63;;;3.72;;
28531;SDS011;15738;44.860;10.066;2022-11-22T08:28:57;5.55;;;3.63;;
28531;SDS011;15738;44.860;10.066;2022-11-22T08:31:43;8.57;;;4.10;;
28531;SDS011;15738;44.860;10.066;2022-11-22T08:34:28;8.73;;;3.70;;
28531;SDS011;15738;44.860;10.066;2022-11-22T08:37:14;7.72;;;3.40;;
28531;SDS011;15738;44.860;10.066;2022-11-22T08:39:59;6.72;;;3.70;;
28531;SDS011;15738;44.860;10.066;2022-11-22T08:42:45;7.25;;;3.42;;
28531;SDS011;15738;44.860;10.066;2022-11-22T08:45:31;5.30;;;3.28;;
28531;SDS011;15738;44.860;10.066;2022-11-22T08:48:17;5.10;;;2.90;;
28531;SDS011;15738;44.860;10.066;2022-11-22T08:51:07;6.18;;;2.97;;
28531;SDS011;15738;44.860;10.066;2022-11-22T08:53:55;6.88;;;2.85;;
28531;SDS011;15738;44.860;10.066;2022-11-22T08:56:41;10.98;;;3.35;;
28531;SDS011;15738;44.860;10.066;2022-11-22T08:59:26;5.22;;;2.92;;
28531;SDS011;15738;44.860;10.066;2022-11-22T09:02:13;7.10;;;3.30;;
28531;SDS011;15738;44.860;10.066;2022-11-22T09:04:58;6.07;;;3.40;;
28531;SDS011;15738;44.860;10.066;2022-11-22T09:07:44;8.25;;;3.42;;
28531;SDS011;15738;44.860;10.066;2022-11-22T09:10:50;6.85;;;3.38;;
28531;SDS011;15738;44.860;10.066;2022-11-22T09:13:36;4.60;;;2.90;;
28531;SDS011;15738;44.860;10.066;2022-11-22T09:16:22;4.25;;;2.70;;
28531;SDS011;15738;44.860;10.066;2022-11-22T09:19:07;5.95;;;3.20;;
28531;SDS011;15738;44.860;10.066;2022-11-22T09:21:53;4.50;;;2.65;;
28531;SDS011;15738;44.860;10.066;2022-11-22T09:24:39;6.85;;;2.58;;
28531;SDS011;15738;44.860;10.066;2022-11-22T09:27:25;4.47;;;2.38;;
28531;SDS011;15738;44.860;10.066;2022-11-22T09:30:11;4.95;;;2.65;;
28531;SDS011;15738;44.860;10.066;2022-11-22T09:32:57;3.35;;;2.05;;
28531;SDS011;15738;44.860;10.066;2022-11-22T09:35:42;5.35;;;2.58;;
28531;SDS011;15738;44.860;10.066;2022-11-22T09:38:28;3.88;;;2.35;;
28531;SDS011;15738;44.860;10.066;2022-11-22T09:50:25;4.20;;;1.80;;
28531;SDS011;15738;44.860;10.066;2022-11-22T09:53:24;3.42;;;1.75;;
28531;SDS011;15738;44.860;10.066;2022-11-22T09:56:26;4.57;;;1.60;;
28531;SDS011;15738;44.860;10.066;2022-11-22T09:59:15;5.07;;;1.90;;
28531;SDS011;15738;44.860;10.066;2022-11-22T10:02:16;4.53;;;1.67;;
28531;SDS011;15738;44.860;10.066;2022-11-22T10:05:14;3.45;;;1.65;;
28531;SDS011;15738;44.860;10.066;2022-11-22T10:11:12;2.88;;;1.45;;
28531;SDS011;15738;44.860;10.066;2022-11-22T10:14:29;2.75;;;1.50;;
28531;SDS011;15738;44.860;10.066;2022-11-22T10:23:14;1.67;;;1.20;;
28531;SDS011;15738;44.860;10.066;2022-11-22T10:26:13;1.73;;;1.10;;
28531;SDS011;15738;44.860;10.066;2022-11-22T10:47:35;2.90;;;0.70;;
28531;SDS011;15738;44.860;10.066;2022-11-22T10:51:10;1.33;;;0.80;;
28531;SDS011;15738;44.860;10.066;2022-11-22T11:06:15;0.80;;;0.63;;
28531;SDS011;15738;44.860;10.066;2022-11-22T11:09:47;2.65;;;1.10;;
28531;SDS011;15738;44.860;10.066;2022-11-22T11:12:59;1.10;;;0.90;;
28531;SDS011;15738;44.860;10.066;2022-11-22T11:16:02;3.13;;;0.90;;
28531;SDS011;15738;44.860;10.066;2022-11-22T11:22:32;1.45;;;0.90;;
28531;SDS011;15738;44.860;10.066;2022-11-22T11:24:53;1.90;;;1.00;;
28531;SDS011;15738;44.860;10.066;2022-11-22T11:27:38;2.25;;;1.55;;
28531;SDS011;15738;44.860;10.066;2022-11-22T11:30:27;3.00;;;1.60;;
28531;SDS011;15738;44.860;10.066;2022-11-22T11:36:17;1.50;;;1.20;;
28531;SDS011;15738;44.860;10.066;2022-11-22T11:39:18;4.20;;;1.30;;
28531;SDS011;15738;44.860;10.066;2022-11-22T11:42:22;4.13;;;1.77;;
28531;SDS011;15738;44.860;10.066;2022-11-22T11:51:23;2.33;;;1.27;;
28531;SDS011;15738;44.860;10.066;2022-11-22T11:54:20;2.50;;;1.30;;
28531;SDS011;15738;44.860;10.066;2022-11-22T11:57:26;3.72;;;1.55;;
28531;SDS011;15738;44.860;10.066;2022-11-22T12:00:46;3.05;;;1.52;;
28531;SDS011;15738;44.860;10.066;2022-11-22T12:03:25;2.80;;;1.42;;
28531;SDS011;15738;44.860;10.066;2022-11-22T12:06:12;1.83;;;1.20;;
28531;SDS011;15738;44.860;10.066;2022-11-22T12:09:00;3.45;;;1.30;;
28531;SDS011;15738;44.860;10.066;2022-11-22T12:17:09;3.42;;;2.17;;
28531;SDS011;15738;44.860;10.066;2022-11-22T12:20:09;3.78;;;2.17;;
28531;SDS011;15738;44.860;10.066;2022-11-22T12:25:54;3.80;;;1.40;;
28531;SDS011;15738;44.860;10.066;2022-11-22T12:28:41;1.85;;;1.40;;
28531;SDS011;15738;44.860;10.066;2022-11-22T12:34:30;3.10;;;1.77;;
28531;SDS011;15738;44.860;10.066;2022-11-22T12:37:48;3.17;;;2.10;;
28531;SDS011;15738;44.860;10.066;2022-11-22T12:40:40;6.55;;;1.90;;
28531;SDS011;15738;44.860;10.066;2022-11-22T12:43:29;4.05;;;2.10;;
28531;SDS011;15738;44.860;10.066;2022-11-22T12:46:29;2.50;;;1.77;;
28531;SDS011;15738;44.860;10.066;2022-11-22T12:52:24;4.47;;;1.95;;
28531;SDS011;15738;44.860;10.066;2022-11-22T12:55:21;3.65;;;2.20;;
28531;SDS011;15738;44.860;10.066;2022-11-22T13:04:40;2.28;;;1.80;;
28531;SDS011;15738;44.860;10.066;2022-11-22T13:13:36;6.40;;;2.67;;
28531;SDS011;15738;44.860;10.066;2022-11-22T13:16:27;4.25;;;2.38;;
28531;SDS011;15738;44.860;10.066;2022-11-22T13:19:14;6.40;;;3.00;;
28531;SDS011;15738;44.860;10.066;2022-11-22T13:28:21;6.13;;;2.67;;
28531;SDS011;15738;44.860;10.066;2022-11-22T13:33:56;4.85;;;2.47;;
28531;SDS011;15738;44.860;10.066;2022-11-22T13:36:44;4.65;;;2.40;;
28531;SDS011;15738;44.860;10.066;2022-11-22T13:39:32;5.70;;;2.97;;
28531;SDS011;15738;44.860;10.066;2022-11-22T13:42:24;6.05;;;2.85;;
28531;SDS011;15738;44.860;10.066;2022-11-22T13:48:08;4.28;;;2.58;;
28531;SDS011;15738;44.860;10.066;2022-11-22T13:53:43;11.27;;;4.05;;
28531;SDS011;15738;44.860;10.066;2022-11-22T13:59:22;8.23;;;2.65;;
28531;SDS011;15738;44.860;10.066;2022-11-22T14:02:21;4.28;;;2.63;;
28531;SDS011;15738;44.860;10.066;2022-11-22T14:05:17;6.05;;;2.15;;
28531;SDS011;15738;44.860;10.066;2022-11-22T14:08:24;3.58;;;1.95;;
28531;SDS011;15738;44.860;10.066;2022-11-22T14:14:40;5.00;;;2.42;;
28531;SDS011;15738;44.860;10.066;2022-11-22T14:21:06;3.92;;;2.42;;
28531;SDS011;15738;44.860;10.066;2022-11-22T14:24:28;4.60;;;2.30;;
28531;SDS011;15738;44.860;10.066;2022-11-22T14:30:48;4.05;;;2.30;;
28531;SDS011;15738;44.860;10.066;2022-11-22T14:34:11;3.97;;;2.35;;
28531;SDS011;15738;44.860;10.066;2022-11-22T14:42:44;5.55;;;2.75;;
28531;SDS011;15738;44.860;10.066;2022-11-22T14:45:51;5.45;;;2.67;;
28531;SDS011;15738;44.860;10.066;2022-11-22T14:48:49;5.45;;;2.40;;
28531;SDS011;15738;44.860;10.066;2022-11-22T14:51:40;8.93;;;2.67;;
28531;SDS011;15738;44.860;10.066;2022-11-22T14:54:32;7.15;;;3.50;;
28531;SDS011;15738;44.860;10.066;2022-11-22T14:57:29;5.85;;;3.53;;
28531;SDS011;15738;44.860;10.066;2022-11-22T15:00:19;5.85;;;2.83;;
28531;SDS011;15738;44.860;10.066;2022-11-22T15:03:10;5.85;;;2.63;;
28531;SDS011;15738;44.860;10.066;2022-11-22T15:16:21;5.38;;;2.50;;
28531;SDS011;15738;44.860;10.066;2022-11-22T15:19:36;4.45;;;2.03;;
28531;SDS011;15738;44.860;10.066;2022-11-22T15:22:44;3.28;;;1.83;;
28531;SDS011;15738;44.860;10.066;2022-11-22T15:26:00;3.70;;;1.77;;
28531;SDS011;15738;44.860;10.066;2022-11-22T15:29:15;3.88;;;2.20;;
28531;SDS011;15738;44.860;10.066;2022-11-22T15:32:22;4.72;;;2.55;;
28531;SDS011;15738;44.860;10.066;2022-11-22T15:35:41;7.40;;;3.78;;
28531;SDS011;15738;44.860;10.066;2022-11-22T15:38:55;7.90;;;5.13;;
28531;SDS011;15738;44.860;10.066;2022-11-22T15:42:15;7.97;;;4.00;;
28531;SDS011;15738;44.860;10.066;2022-11-22T15:45:22;5.93;;;3.22;;
28531;SDS011;15738;44.860;10.066;2022-11-22T15:48:34;4.93;;;2.42;;
28531;SDS011;15738;44.860;10.066;2022-11-22T15:51:51;5.33;;;3.33;;
28531;SDS011;15738;44.860;10.066;2022-11-22T15:54:59;5.28;;;2.13;;
28531;SDS011;15738;44.860;10.066;2022-11-22T15:58:04;4.57;;;2.30;;
28531;SDS011;15738;44.860;10.066;2022-11-22T16:00:57;3.65;;;2.17;;
28531;SDS011;15738;44.860;10.066;2022-11-22T16:04:04;3.70;;;1.80;;
28531;SDS011;15738;44.860;10.066;2022-11-22T16:06:50;4.10;;;2.28;;
28531;SDS011;15738;44.860;10.066;2022-11-22T16:09:36;3.88;;;2.17;;
28531;SDS011;15738;44.860;10.066;2022-11-22T16:12:27;10.02;;;3.90;;
28531;SDS011;15738;44.860;10.066;2022-11-22T16:15:20;5.18;;;3.10;;
28531;SDS011;15738;44.860;10.066;2022-11-22T16:18:23;7.25;;;2.80;;
28531;SDS011;15738;44.860;10.066;2022-11-22T16:24:16;6.05;;;2.80;;
28531;SDS011;15738;44.860;10.066;2022-11-22T16:27:03;10.90;;;4.00;;
28531;SDS011;15738;44.860;10.066;2022-11-22T16:29:57;6.13;;;3.42;;
28531;SDS011;15738;44.860;10.066;2022-11-22T16:32:44;8.27;;;2.97;;
28531;SDS011;15738;44.860;10.066;2022-11-22T16:35:31;6.00;;;2.60;;
28531;SDS011;15738;44.860;10.066;2022-11-22T16:38:17;4.97;;;2.85;;
28531;SDS011;15738;44.860;10.066;2022-11-22T16:41:03;6.32;;;2.47;;
28531;SDS011;15738;44.860;10.066;2022-11-22T16:43:51;5.40;;;2.88;;
28531;SDS011;15738;44.860;10.066;2022-11-22T16:46:39;5.68;;;3.05;;
28531;SDS011;15738;44.860;10.066;2022-11-22T16:49:25;4.18;;;2.80;;
28531;SDS011;15738;44.860;10.066;2022-11-22T16:52:11;6.15;;;2.97;;
28531;SDS011;15738;44.860;10.066;2022-11-22T16:54:59;4.45;;;2.60;;
28531;SDS011;15738;44.860;10.066;2022-11-22T16:57:45;4.82;;;2.80;;
28531;SDS011;15738;44.860;10.066;2022-11-22T17:00:31;7.15;;;3.55;;
28531;SDS011;15738;44.860;10.066;2022-11-22T17:03:20;4.88;;;2.95;;
28531;SDS011;15738;44.860;10.066;2022-11-22T17:06:12;6.25;;;3.15;;
28531;SDS011;15738;44.860;10.066;2022-11-22T17:09:02;6.13;;;3.70;;
28531;SDS011;15738;44.860;10.066;2022-11-22T17:11:48;6.88;;;4.28;;
28531;SDS011;15738;44.860;10.066;2022-11-22T17:14:34;7.25;;;4.35;;
28531;SDS011;15738;44.860;10.066;2022-11-22T17:17:20;7.55;;;3.55;;
28531;SDS011;15738;44.860;10.066;2022-11-22T17:20:05;6.50;;;3.08;;
28531;SDS011;15738;44.860;10.066;2022-11-22T17:22:52;8.73;;;3.40;;
28531;SDS011;15738;44.860;10.066;2022-11-22T17:25:37;5.18;;;2.97;;
28531;SDS011;15738;44.860;10.066;2022-11-22T17:28:23;4.60;;;2.80;;
28531;SDS011;15738;44.860;10.066;2022-11-22T17:31:12;7.93;;;3.38;;
28531;SDS011;15738;44.860;10.066;2022-11-22T17:33:59;5.35;;;2.60;;
28531;SDS011;15738;44.860;10.066;2022-11-22T17:36:45;6.72;;;2.20;;
28531;SDS011;15738;44.860;10.066;2022-11-22T17:39:30;5.47;;;2.30;;
28531;SDS011;15738;44.860;10.066;2022-11-22T17:42:17;4.50;;;2.63;;
28531;SDS011;15738;44.860;10.066;2022-11-22T17:45:04;4.38;;;2.30;;
28531;SDS011;15738;44.860;10.066;2022-11-22T17:47:50;4.05;;;2.58;;
28531;SDS011;15738;44.860;10.066;2022-11-22T17:50:38;6.95;;;2.58;;
28531;SDS011;15738;44.860;10.066;2022-11-22T17:53:23;5.68;;;2.90;;
28531;SDS011;15738;44.860;10.066;2022-11-22T17:56:09;4.68;;;2.30;;
28531;SDS011;15738;44.860;10.066;2022-11-22T17:58:55;4.18;;;2.10;;
28531;SDS011;15738;44.860;10.066;2022-11-22T18:01:41;3.05;;;1.90;;
28531;SDS011;15738;44.860;10.066;2022-11-22T18:04:28;4.15;;;1.85;;
28531;SDS011;15738;44.860;10.066;2022-11-22T18:07:15;3.47;;;2.10;;
28531;SDS011;15738;44.860;10.066;2022-11-22T18:10:00;4.18;;;2.15;;
28531;SDS011;15738;44.860;10.066;2022-11-22T18:12:46;4.40;;;2.55;;
28531;SDS011;15738;44.860;10.066;2022-11-22T18:15:54;4.25;;;2.28;;
28531;SDS011;15738;44.860;10.066;2022-11-22T18:18:48;3.63;;;2.38;;
28531;SDS011;15738;44.860;10.066;2022-11-22T18:21:43;12.52;;;2.42;;
28531;SDS011;15738;44.860;10.066;2022-11-22T18:24:29;5.80;;;2.55;;
28531;SDS011;15738;44.860;10.066;2022-11-22T18:27:15;6.40;;;3.90;;
28531;SDS011;15738;44.860;10.066;2022-11-22T18:30:00;6.72;;;4.20;;
28531;SDS011;15738;44.860;10.066;2022-11-22T18:32:49;6.68;;;4.60;;
28531;SDS011;15738;44.860;10.066;2022-11-22T18:35:38;7.15;;;3.97;;
28531;SDS011;15738;44.860;10.066;2022-11-22T18:38:24;10.10;;;3.33;;
28531;SDS011;15738;44.860;10.066;2022-11-22T18:41:09;4.85;;;3.10;;
28531;SDS011;15738;44.860;10.066;2022-11-22T18:43:55;10.80;;;2.90;;
28531;SDS011;15738;44.860;10.066;2022-11-22T18:46:40;5.15;;;2.47;;
28531;SDS011;15738;44.860;10.066;2022-11-22T18:49:26;5.53;;;2.72;;
28531;SDS011;15738;44.860;10.066;2022-11-22T18:52:12;7.18;;;3.38;;
28531;SDS011;15738;44.860;10.066;2022-11-22T18:55:05;5.60;;;3.28;;
28531;SDS011;15738;44.860;10.066;2022-11-22T18:57:51;8.05;;;3.22;;
28531;SDS011;15738;44.860;10.066;2022-11-22T19:00:38;3.33;;;2.08;;